Time;durP1;ratioP1;P1;durP2;ratioP2;P2;SDS_P1;SDS_P2;PMS_P1;PMS_P2;Temp;Humidity;BMP_temperature;BMP_pressure;BME280_temperature;BME280_humidity;BME280_pressure;Samples;Min_cycle;Max_cycle;Signal;HPM_P1;HPM_P2
2023/01/30 00:01:19;;;;;;;7.45;3.92;;;;;;;;;;5036513;28;20147;-80
2023/01/30 00:03:44;;;;;;;7.88;4.57;;;;;;;;;;5056494;28;20033;-80
2023/01/30 00:06:10;;;;;;;6.00;4.05;;;;;;;;;;5060334;28;20040;-81
2023/01/30 00:08:36;;;;;;;11.57;5.85;;;;;;;;;;5061679;28;20052;-78
2023/01/30 00:11:06;;;;;;;7.90;4.30;;;;;;;;;;5055410;28;20035;-79
2023/01/30 00:13:32;;;;;;;8.75;4.00;;;;;;;;;;5029239;28;20029;-81
2023/01/30 00:15:57;;;;;;;6.35;4.00;;;;;;;;;;5050236;28;20391;-80
2023/01/30 00:18:22;;;;;;;8.02;4.72;;;;;;;;;;5032362;28;20100;-80
2023/01/30 00:20:53;;;;;;;6.28;4.05;;;;;;;;;;5049432;28;20367;-80
2023/01/30 00:23:19;;;;;;;8.77;5.85;;;;;;;;;;5049603;28;20486;-80
2023/01/30 00:25:44;;;;;;;7.30;4.07;;;;;;;;;;5033373;28;20037;-78
2023/01/30 00:28:10;;;;;;;8.05;4.60;;;;;;;;;;5050992;28;20043;-79
2023/01/30 00:30:35;;;;;;;6.65;3.80;;;;;;;;;;5028555;28;20021;-78
2023/01/30 00:33:00;;;;;;;12.35;4.63;;;;;;;;;;5045961;28;20630;-81
2023/01/30 00:35:28;;;;;;;8.35;4.35;;;;;;;;;;5052701;28;20028;-78
2023/01/30 00:37:58;;;;;;;7.55;4.07;;;;;;;;;;5054291;28;20029;-78
2023/01/30 00:40:25;;;;;;;9.38;4.47;;;;;;;;;;5035508;28;20021;-80
2023/01/30 00:48:21;;;;;;;5.88;3.65;;;;;;;;;;5052093;28;20036;-79
2023/01/30 00:50:46;;;;;;;9.02;4.68;;;;;;;;;;5048465;28;20029;-80
2023/01/30 00:53:12;;;;;;;8.57;4.97;;;;;;;;;;5029753;28;20028;-81
2023/01/30 00:55:38;;;;;;;8.23;3.60;;;;;;;;;;5054559;28;20132;-78
2023/01/30 00:58:03;;;;;;;5.47;3.92;;;;;;;;;;5051908;28;20056;-79
2023/01/30 01:00:29;;;;;;;6.30;4.28;;;;;;;;;;5045322;28;20148;-79
2023/01/30 01:02:54;;;;;;;5.40;2.55;;;;;;;;;;5049407;28;20040;-81
2023/01/30 01:05:20;;;;;;;4.18;2.90;;;;;;;;;;5048581;28;21261;-78
2023/01/30 01:07:45;;;;;;;7.25;3.70;;;;;;;;;;5046588;28;20543;-80
2023/01/30 01:10:15;;;;;;;7.05;4.50;;;;;;;;;;5045877;28;20590;-79
2023/01/30 01:12:42;;;;;;;6.30;3.38;;;;;;;;;;5041871;28;20048;-77
2023/01/30 01:15:08;;;;;;;6.00;4.38;;;;;;;;;;5051448;28;20025;-81
2023/01/30 01:17:33;;;;;;;6.25;4.53;;;;;;;;;;5047512;28;20056;-80
2023/01/30 01:19:58;;;;;;;6.88;4.00;;;;;;;;;;5032671;28;20025;-80
2023/01/30 01:22:24;;;;;;;6.88;4.32;;;;;;;;;;5032953;28;20017;-80
2023/01/30 01:24:49;;;;;;;6.28;4.82;;;;;;;;;;5047884;28;20044;-78
2023/01/30 01:27:14;;;;;;;11.80;4.40;;;;;;;;;;5050297;28;20021;-80
2023/01/30 01:29:40;;;;;;;7.47;3.88;;;;;;;;;;5050881;28;20474;-81
2023/01/30 01:32:05;;;;;;;6.05;3.58;;;;;;;;;;5031478;28;20025;-80
2023/01/30 01:34:30;;;;;;;8.15;4.53;;;;;;;;;;5050124;28;20034;-81
2023/01/30 01:36:56;;;;;;;6.43;4.18;;;;;;;;;;5052080;28;20032;-79
2023/01/30 01:39:22;;;;;;;4.97;3.58;;;;;;;;;;5033324;28;20037;-78
2023/01/30 01:41:47;;;;;;;8.25;4.38;;;;;;;;;;5050630;28;20025;-80
2023/01/30 01:44:15;;;;;;;6.70;3.88;;;;;;;;;;5049879;28;20028;-80
2023/01/30 01:46:58;;;;;;;12.82;5.10;;;;;;;;;;5033553;28;20089;-81
2023/01/30 01:49:30;;;;;;;10.32;5.28;;;;;;;;;;5056428;28;20048;-79
2023/01/30 01:52:15;;;;;;;4.63;3.67;;;;;;;;;;5053315;28;20395;-78
2023/01/30 01:54:55;;;;;;;10.10;4.18;;;;;;;;;;5047292;28;20029;-81
2023/01/30 01:57:35;;;;;;;8.88;3.78;;;;;;;;;;5053737;28;20025;-80
2023/01/30 02:00:11;;;;;;;6.90;3.75;;;;;;;;;;5057311;28;20033;-81
2023/01/30 02:02:40;;;;;;;6.57;3.75;;;;;;;;;;5063421;28;20074;-80
2023/01/30 02:05:06;;;;;;;8.57;4.07;;;;;;;;;;5080049;28;20044;-80
2023/01/30 02:07:38;;;;;;;5.95;4.28;;;;;;;;;;5060840;28;20415;-78
2023/01/30 02:10:07;;;;;;;10.75;5.13;;;;;;;;;;5062317;28;20013;-80
2023/01/30 02:12:32;;;;;;;9.43;4.57;;;;;;;;;;5057484;28;20029;-80
2023/01/30 02:14:59;;;;;;;7.43;4.60;;;;;;;;;;5062268;28;20475;-80
2023/01/30 02:17:25;;;;;;;7.30;4.13;;;;;;;;;;5070421;28;20123;-80
2023/01/30 02:19:56;;;;;;;8.98;6.10;;;;;;;;;;5043333;28;20025;-79
2023/01/30 02:22:41;;;;;;;8.43;5.10;;;;;;;;;;5057102;28;20035;-79
2023/01/30 02:25:12;;;;;;;9.55;4.68;;;;;;;;;;5044015;28;20363;-80
2023/01/30 02:27:56;;;;;;;7.90;4.55;;;;;;;;;;5060309;28;20233;-79
2023/01/30 02:30:49;;;;;;;8.02;4.70;;;;;;;;;;5057937;28;20464;-79
2023/01/30 02:33:26;;;;;;;7.65;4.78;;;;;;;;;;5063082;28;20108;-79
2023/01/30 02:36:20;;;;;;;9.10;5.47;;;;;;;;;;5057242;28;20025;-80
2023/01/30 02:39:01;;;;;;;10.63;5.97;;;;;;;;;;5036042;28;20029;-80
2023/01/30 02:41:45;;;;;;;13.95;7.70;;;;;;;;;;5052823;28;20074;-81
2023/01/30 02:44:26;;;;;;;18.15;7.03;;;;;;;;;;5043646;28;20036;-80
2023/01/30 02:46:56;;;;;;;11.15;4.68;;;;;;;;;;5056634;28;20412;-79
2023/01/30 02:49:32;;;;;;;12.23;6.45;;;;;;;;;;5057030;28;20119;-79
2023/01/30 02:52:01;;;;;;;8.18;4.65;;;;;;;;;;5054429;28;20040;-79
2023/01/30 02:54:26;;;;;;;11.80;6.80;;;;;;;;;;5051822;28;20032;-79
2023/01/30 02:56:56;;;;;;;10.10;5.78;;;;;;;;;;5062840;28;20032;-79
2023/01/30 02:59:36;;;;;;;8.30;4.88;;;;;;;;;;5058874;28;20033;-81
2023/01/30 03:02:20;;;;;;;9.18;4.53;;;;;;;;;;5068268;28;20028;-81
2023/01/30 03:05:13;;;;;;;11.85;6.38;;;;;;;;;;5061598;28;20482;-80
2023/01/30 03:08:17;;;;;;;8.15;5.47;;;;;;;;;;5052490;28;20056;-81
2023/01/30 03:10:48;;;;;;;10.32;5.50;;;;;;;;;;5048144;28;20036;-80
2023/01/30 03:13:24;;;;;;;12.27;5.90;;;;;;;;;;5074979;28;20043;-79
2023/01/30 03:15:54;;;;;;;10.55;5.65;;;;;;;;;;5062772;28;20029;-79
2023/01/30 03:18:20;;;;;;;13.32;6.78;;;;;;;;;;5071109;28;20021;-80
2023/01/30 03:20:46;;;;;;;10.82;6.90;;;;;;;;;;5062009;28;20128;-79
2023/01/30 03:23:12;;;;;;;13.15;6.80;;;;;;;;;;5045824;28;20039;-79
2023/01/30 03:25:40;;;;;;;12.38;6.90;;;;;;;;;;5060934;28;20071;-79
2023/01/30 03:28:07;;;;;;;11.10;5.95;;;;;;;;;;5061049;28;20028;-79
2023/01/30 03:30:33;;;;;;;14.18;6.97;;;;;;;;;;5069842;28;20032;-79
2023/01/30 03:32:58;;;;;;;7.95;5.53;;;;;;;;;;5066903;28;20032;-79
2023/01/30 03:35:23;;;;;;;8.45;5.15;;;;;;;;;;5056945;28;20367;-80
2023/01/30 03:37:49;;;;;;;6.85;4.15;;;;;;;;;;5056180;28;20040;-79
2023/01/30 03:40:15;;;;;;;9.07;4.07;;;;;;;;;;5060273;28;20036;-79
2023/01/30 03:42:41;;;;;;;10.60;5.10;;;;;;;;;;5056600;28;20116;-79
2023/01/30 03:45:07;;;;;;;8.43;4.55;;;;;;;;;;5064760;28;20123;-79
2023/01/30 03:47:33;;;;;;;11.40;5.13;;;;;;;;;;5073852;28;20024;-79
2023/01/30 03:49:58;;;;;;;11.45;5.72;;;;;;;;;;5043599;28;20059;-79
2023/01/30 03:52:23;;;;;;;13.40;6.25;;;;;;;;;;5057384;28;20048;-79
2023/01/30 03:54:49;;;;;;;7.47;4.70;;;;;;;;;;5058113;28;20084;-79
2023/01/30 03:57:14;;;;;;;8.43;4.13;;;;;;;;;;5066743;28;20039;-80
2023/01/30 03:59:40;;;;;;;9.60;4.68;;;;;;;;;;5070870;28;20033;-80
2023/01/30 04:02:05;;;;;;;10.63;5.10;;;;;;;;;;5057222;28;20035;-80
2023/01/30 04:04:30;;;;;;;7.38;4.30;;;;;;;;;;5052625;28;20102;-80
2023/01/30 04:06:56;;;;;;;10.00;4.90;;;;;;;;;;5057360;28;20494;-81
2023/01/30 04:09:21;;;;;;;5.53;3.45;;;;;;;;;;5060459;28;20431;-80
2023/01/30 04:11:47;;;;;;;4.72;2.85;;;;;;;;;;5057591;28;20099;-80
2023/01/30 04:14:12;;;;;;;3.92;3.28;;;;;;;;;;5036305;28;20025;-80
2023/01/30 04:16:37;;;;;;;10.68;4.30;;;;;;;;;;5063568;28;20494;-80
2023/01/30 04:19:03;;;;;;;6.78;3.97;;;;;;;;;;5037897;28;20143;-80
2023/01/30 04:21:28;;;;;;;6.93;4.72;;;;;;;;;;5038295;28;20037;-80
2023/01/30 04:23:53;;;;;;;9.55;4.65;;;;;;;;;;5041270;28;20025;-80
2023/01/30 04:26:19;;;;;;;13.13;4.75;;;;;;;;;;5059080;28;20034;-80
2023/01/30 04:28:44;;;;;;;5.70;3.40;;;;;;;;;;5063955;28;20032;-80
2023/01/30 04:31:10;;;;;;;3.97;2.95;;;;;;;;;;5034271;28;20089;-80
2023/01/30 04:33:38;;;;;;;7.03;4.28;;;;;;;;;;5068861;28;20025;-80
2023/01/30 04:36:05;;;;;;;4.32;3.30;;;;;;;;;;5058286;28;20120;-80
2023/01/30 04:38:32;;;;;;;6.60;4.03;;;;;;;;;;5060813;28;20031;-81
2023/01/30 04:40:57;;;;;;;6.57;3.65;;;;;;;;;;5057597;28;20033;-80
2023/01/30 04:43:25;;;;;;;8.93;4.38;;;;;;;;;;5050152;28;20021;-81
2023/01/30 04:45:51;;;;;;;12.60;3.88;;;;;;;;;;5063256;28;20548;-80
2023/01/30 04:48:17;;;;;;;7.07;3.70;;;;;;;;;;5060353;28;20055;-80
2023/01/30 04:50:46;;;;;;;7.10;3.90;;;;;;;;;;5039699;28;20115;-80
2023/01/30 04:53:11;;;;;;;3.28;2.72;;;;;;;;;;5057337;28;20039;-80
2023/01/30 04:55:37;;;;;;;4.10;3.00;;;;;;;;;;5037059;28;20020;-80
2023/01/30 04:58:02;;;;;;;9.23;4.20;;;;;;;;;;5054507;28;20291;-81
2023/01/30 05:00:28;;;;;;;5.13;3.30;;;;;;;;;;5053652;28;20116;-80
2023/01/30 05:02:54;;;;;;;5.22;3.03;;;;;;;;;;5034528;28;20036;-80
2023/01/30 05:05:21;;;;;;;5.90;3.38;;;;;;;;;;5054812;28;20025;-81
2023/01/30 05:07:46;;;;;;;3.10;2.40;;;;;;;;;;5053072;28;20549;-80
2023/01/30 05:10:12;;;;;;;5.47;3.60;;;;;;;;;;5036535;28;20021;-80
2023/01/30 05:12:37;;;;;;;4.63;3.72;;;;;;;;;;5053391;28;21462;-80
2023/01/30 05:15:03;;;;;;;5.85;2.58;;;;;;;;;;5036765;28;20051;-80
2023/01/30 05:17:28;;;;;;;5.50;3.10;;;;;;;;;;5027817;28;20060;-80
2023/01/30 05:19:53;;;;;;;4.40;2.05;;;;;;;;;;5048897;28;20028;-80
2023/01/30 05:22:19;;;;;;;7.13;3.70;;;;;;;;;;5055178;28;20080;-80
2023/01/30 05:24:44;;;;;;;7.22;3.25;;;;;;;;;;5055341;28;20095;-80
2023/01/30 05:27:09;;;;;;;4.20;2.97;;;;;;;;;;5035807;28;20027;-80
2023/01/30 05:29:35;;;;;;;8.20;3.53;;;;;;;;;;5056454;28;20021;-80
2023/01/30 05:32:00;;;;;;;5.57;3.22;;;;;;;;;;5057623;28;20035;-80
2023/01/30 05:34:25;;;;;;;4.32;2.67;;;;;;;;;;5057051;28;20025;-81
2023/01/30 05:36:51;;;;;;;4.75;2.97;;;;;;;;;;5059896;28;20078;-80
2023/01/30 05:39:16;;;;;;;4.78;3.10;;;;;;;;;;5057740;28;20179;-80
2023/01/30 05:41:41;;;;;;;3.92;2.60;;;;;;;;;;5039245;28;20171;-81
2023/01/30 05:44:07;;;;;;;5.72;3.75;;;;;;;;;;5056366;28;20095;-80
2023/01/30 05:46:32;;;;;;;5.03;3.42;;;;;;;;;;5058399;28;20029;-80
2023/01/30 05:48:57;;;;;;;5.88;3.30;;;;;;;;;;5039950;28;20398;-80
2023/01/30 05:51:25;;;;;;;6.28;3.80;;;;;;;;;;5073715;28;20431;-80
2023/01/30 05:53:51;;;;;;;6.15;3.10;;;;;;;;;;5056266;28;20029;-81
2023/01/30 05:56:18;;;;;;;5.30;3.13;;;;;;;;;;5058588;28;20071;-81
2023/01/30 05:58:49;;;;;;;2.63;2.15;;;;;;;;;;5057396;28;20032;-81
2023/01/30 06:01:14;;;;;;;5.80;3.28;;;;;;;;;;5057400;28;20021;-80
2023/01/30 06:03:40;;;;;;;4.05;3.05;;;;;;;;;;5049410;28;20079;-82
2023/01/30 06:06:06;;;;;;;6.60;3.45;;;;;;;;;;5059618;28;20047;-81
2023/01/30 06:08:32;;;;;;;10.48;4.28;;;;;;;;;;5059071;28;20021;-81
2023/01/30 06:11:02;;;;;;;7.65;4.40;;;;;;;;;;5058777;28;20029;-81
2023/01/30 06:13:27;;;;;;;4.22;2.90;;;;;;;;;;5058753;28;20032;-81
2023/01/30 06:15:52;;;;;;;6.57;3.63;;;;;;;;;;5057042;28;20029;-81
2023/01/30 06:18:18;;;;;;;7.63;4.05;;;;;;;;;;5058907;28;20032;-81
2023/01/30 06:20:48;;;;;;;7.55;3.15;;;;;;;;;;5057053;28;20056;-80
2023/01/30 06:23:13;;;;;;;8.20;4.38;;;;;;;;;;5063583;28;20025;-80
2023/01/30 06:25:45;;;;;;;8.73;4.03;;;;;;;;;;5061946;28;20475;-81
2023/01/30 06:28:11;;;;;;;6.43;3.47;;;;;;;;;;5051953;28;20128;-80
2023/01/30 06:30:37;;;;;;;6.10;3.33;;;;;;;;;;5057517;28;20028;-81
2023/01/30 06:33:02;;;;;;;4.82;2.85;;;;;;;;;;5058892;28;20154;-81
2023/01/30 06:35:28;;;;;;;6.38;3.72;;;;;;;;;;5055903;28;20025;-80
2023/01/30 06:37:53;;;;;;;6.68;3.65;;;;;;;;;;5038749;28;20032;-80
2023/01/30 06:40:18;;;;;;;5.72;3.30;;;;;;;;;;5040463;28;20029;-81
2023/01/30 06:42:45;;;;;;;4.30;2.78;;;;;;;;;;5052832;28;20079;-82
2023/01/30 06:45:12;;;;;;;4.80;3.10;;;;;;;;;;5059202;28;20025;-80
2023/01/30 06:47:50;;;;;;;6.43;3.72;;;;;;;;;;5039413;28;20101;-80
2023/01/30 06:50:17;;;;;;;3.85;3.45;;;;;;;;;;5058849;28;20596;-80
2023/01/30 06:52:46;;;;;;;6.55;2.80;;;;;;;;;;5056678;28;20123;-80
2023/01/30 06:55:16;;;;;;;5.45;3.13;;;;;;;;;;5054928;28;20021;-81
2023/01/30 06:57:42;;;;;;;6.65;3.72;;;;;;;;;;5056740;28;20040;-81
2023/01/30 07:00:14;;;;;;;7.30;3.70;;;;;;;;;;5054701;28;20033;-81
2023/01/30 07:02:39;;;;;;;6.43;4.00;;;;;;;;;;5032297;28;20032;-80
2023/01/30 07:05:06;;;;;;;8.90;3.97;;;;;;;;;;5038136;28;20446;-80
2023/01/30 07:07:32;;;;;;;6.03;3.28;;;;;;;;;;5055789;28;20067;-81
2023/01/30 07:09:58;;;;;;;7.25;3.33;;;;;;;;;;5055498;28;20033;-80
2023/01/30 07:12:24;;;;;;;4.40;3.08;;;;;;;;;;5046136;28;20029;-80
2023/01/30 07:14:51;;;;;;;3.15;2.17;;;;;;;;;;5054502;28;20032;-81
2023/01/30 07:17:16;;;;;;;5.72;3.00;;;;;;;;;;5055713;28;20052;-80
2023/01/30 07:19:43;;;;;;;3.58;2.88;;;;;;;;;;5055972;28;20040;-80
2023/01/30 07:22:08;;;;;;;5.38;3.20;;;;;;;;;;5055926;28;20020;-81
2023/01/30 07:24:33;;;;;;;6.13;3.22;;;;;;;;;;5056086;28;20036;-80
2023/01/30 07:26:59;;;;;;;5.43;2.78;;;;;;;;;;5069756;28;20037;-80
2023/01/30 07:29:24;;;;;;;4.80;2.75;;;;;;;;;;5051397;28;20398;-80
2023/01/30 07:31:50;;;;;;;5.00;3.50;;;;;;;;;;5070453;28;20025;-79
2023/01/30 07:34:15;;;;;;;5.40;2.90;;;;;;;;;;5056120;28;20090;-80
2023/01/30 07:36:41;;;;;;;5.80;3.05;;;;;;;;;;5058886;28;20021;-80
2023/01/30 07:39:08;;;;;;;5.47;3.35;;;;;;;;;;5056824;28;20021;-81
2023/01/30 07:41:33;;;;;;;6.72;3.53;;;;;;;;;;5056385;28;20029;-81
2023/01/30 07:43:59;;;;;;;6.03;3.03;;;;;;;;;;5057236;28;20017;-81
2023/01/30 07:46:24;;;;;;;5.90;3.35;;;;;;;;;;5054421;28;20036;-81
2023/01/30 07:48:50;;;;;;;4.30;2.65;;;;;;;;;;5064597;28;20212;-80
2023/01/30 07:51:15;;;;;;;6.45;2.70;;;;;;;;;;5059876;28;20087;-79
2023/01/30 07:53:40;;;;;;;6.70;2.83;;;;;;;;;;5066573;28;20024;-80
2023/01/30 07:56:13;;;;;;;3.95;3.17;;;;;;;;;;5064360;28;20047;-79
2023/01/30 07:58:38;;;;;;;;;;;;;;;;;;5038216;28;20036;-81
2023/01/30 08:01:04;;;;;;;2.45;2.22;;;;;;;;;;5050980;28;19920;-81
2023/01/30 08:03:29;;;;;;;6.03;2.67;;;;;;;;;;5053727;28;20035;-82
2023/01/30 08:05:55;;;;;;;3.65;2.25;;;;;;;;;;5051501;28;20029;-81
2023/01/30 08:08:20;;;;;;;4.93;2.47;;;;;;;;;;5053261;28;20075;-82
2023/01/30 08:10:47;;;;;;;6.07;3.20;;;;;;;;;;5029797;28;20033;-81
2023/01/30 08:13:13;;;;;;;7.55;4.03;;;;;;;;;;5054411;28;20051;-80
2023/01/30 08:15:38;;;;;;;4.40;3.45;;;;;;;;;;5036408;28;20041;-81
2023/01/30 08:18:06;;;;;;;11.85;3.58;;;;;;;;;;5053666;28;20033;-81
2023/01/30 08:20:32;;;;;;;6.55;3.47;;;;;;;;;;5054846;28;20029;-82
2023/01/30 08:22:58;;;;;;;7.38;3.42;;;;;;;;;;5050851;28;20033;-83
2023/01/30 08:25:23;;;;;;;6.38;3.97;;;;;;;;;;5054737;28;20479;-82
2023/01/30 08:27:49;;;;;;;8.18;3.97;;;;;;;;;;5053543;28;20048;-84
2023/01/30 08:30:15;;;;;;;6.10;3.85;;;;;;;;;;5055423;28;20028;-81
2023/01/30 08:32:40;;;;;;;7.50;3.95;;;;;;;;;;5036732;28;20083;-82
2023/01/30 08:35:06;;;;;;;9.52;4.28;;;;;;;;;;5034873;28;20029;-81
2023/01/30 08:37:31;;;;;;;7.05;3.97;;;;;;;;;;5052967;28;20108;-82
2023/01/30 08:39:57;;;;;;;5.47;2.95;;;;;;;;;;5054241;28;20032;-82
2023/01/30 08:42:22;;;;;;;6.07;3.10;;;;;;;;;;5027535;28;20116;-82
2023/01/30 08:44:47;;;;;;;4.65;2.65;;;;;;;;;;5053385;28;20064;-82
2023/01/30 08:47:13;;;;;;;8.18;3.53;;;;;;;;;;5059315;28;20029;-82
2023/01/30 08:49:38;;;;;;;7.57;3.42;;;;;;;;;;5051682;28;20614;-82
2023/01/30 08:52:03;;;;;;;6.32;3.40;;;;;;;;;;5041217;28;20029;-80
2023/01/30 08:54:29;;;;;;;8.20;4.15;;;;;;;;;;5054880;28;20048;-82
2023/01/30 08:56:54;;;;;;;4.53;2.97;;;;;;;;;;5043693;28;20028;-82
2023/01/30 08:59:19;;;;;;;5.88;3.00;;;;;;;;;;5064027;28;20494;-81
2023/01/30 09:01:45;;;;;;;3.72;2.70;;;;;;;;;;5055753;28;20024;-81
2023/01/30 09:04:10;;;;;;;5.03;3.05;;;;;;;;;;5060927;28;20031;-82
2023/01/30 09:06:35;;;;;;;2.92;2.10;;;;;;;;;;5070388;28;20091;-82
2023/01/30 09:09:01;;;;;;;4.82;2.85;;;;;;;;;;5045883;28;20107;-81
2023/01/30 09:11:26;;;;;;;2.90;2.45;;;;;;;;;;5052912;28;20028;-80
2023/01/30 09:13:52;;;;;;;2.53;1.90;;;;;;;;;;5051111;28;20031;-82
2023/01/30 09:16:17;;;;;;;4.50;2.85;;;;;;;;;;5052079;28;20025;-80
2023/01/30 09:18:43;;;;;;;2.97;2.08;;;;;;;;;;5067694;28;20082;-82
2023/01/30 09:21:11;;;;;;;5.63;2.47;;;;;;;;;;5051395;28;20021;-80
2023/01/30 09:23:36;;;;;;;5.72;2.63;;;;;;;;;;5068955;28;20029;-81
2023/01/30 09:26:03;;;;;;;6.53;2.60;;;;;;;;;;5062712;28;20040;-81
2023/01/30 09:28:28;;;;;;;4.32;2.67;;;;;;;;;;5077323;28;20108;-82
2023/01/30 09:30:57;;;;;;;2.45;2.00;;;;;;;;;;5068322;28;20249;-81
2023/01/30 09:33:23;;;;;;;3.03;1.88;;;;;;;;;;5067451;28;20032;-81
2023/01/30 09:35:49;;;;;;;3.78;2.38;;;;;;;;;;5069360;28;20021;-80
2023/01/30 09:38:15;;;;;;;4.45;2.58;;;;;;;;;;5072567;28;20028;-80
2023/01/30 09:41:17;;;;;;;4.70;3.03;;;;;;;;;;5064713;28;20175;-81
2023/01/30 09:43:48;;;;;;;5.25;2.78;;;;;;;;;;5062806;28;20045;-81
2023/01/30 09:46:21;;;;;;;6.40;2.58;;;;;;;;;;5047531;28;20063;-80
2023/01/30 09:49:08;;;;;;;5.15;2.92;;;;;;;;;;5062105;28;20033;-82
2023/01/30 09:51:41;;;;;;;3.33;2.63;;;;;;;;;;5067819;28;20025;-80
2023/01/30 09:54:07;;;;;;;4.13;3.00;;;;;;;;;;5064174;28;20031;-80
2023/01/30 09:56:32;;;;;;;2.35;2.03;;;;;;;;;;5046304;28;20029;-79
2023/01/30 09:59:00;;;;;;;4.13;2.42;;;;;;;;;;5055989;28;20033;-80
2023/01/30 10:01:31;;;;;;;4.05;2.88;;;;;;;;;;5050389;28;20026;-80
2023/01/30 10:04:11;;;;;;;4.85;2.90;;;;;;;;;;5051010;28;20036;-80
2023/01/30 10:06:53;;;;;;;6.05;1.75;;;;;;;;;;5049192;28;20028;-80
2023/01/30 10:09:40;;;;;;;4.13;2.28;;;;;;;;;;5054052;28;20062;-81
2023/01/30 10:12:14;;;;;;;1.92;1.73;;;;;;;;;;5042425;28;20029;-81
2023/01/30 10:14:55;;;;;;;3.38;2.15;;;;;;;;;;5059835;28;20039;-80
2023/01/30 10:17:45;;;;;;;4.30;2.38;;;;;;;;;;5055240;28;20031;-81
2023/01/30 10:20:37;;;;;;;4.68;2.88;;;;;;;;;;5037529;28;20025;-82
2023/01/30 10:23:35;;;;;;;3.13;2.10;;;;;;;;;;5019520;28;20033;-80
2023/01/30 10:26:09;;;;;;;2.13;1.60;;;;;;;;;;5011174;28;20033;-80
2023/01/30 10:28:43;;;;;;;2.97;1.60;;;;;;;;;;5055765;28;20475;-82
2023/01/30 10:31:12;;;;;;;4.53;2.63;;;;;;;;;;5055612;28;20451;-81
2023/01/30 10:33:46;;;;;;;2.10;1.90;;;;;;;;;;5050730;28;20543;-82
2023/01/30 10:36:15;;;;;;;2.60;1.77;;;;;;;;;;5045995;28;20041;-82
2023/01/30 10:38:49;;;;;;;3.63;2.03;;;;;;;;;;5045192;28;20124;-82
2023/01/30 10:41:35;;;;;;;3.60;1.83;;;;;;;;;;5030824;28;20031;-82
2023/01/30 10:44:07;;;;;;;6.93;1.60;;;;;;;;;;5046897;28;20030;-81
2023/01/30 10:46:57;;;;;;;6.47;2.13;;;;;;;;;;5048727;28;20033;-81
2023/01/30 10:49:41;;;;;;;4.40;1.63;;;;;;;;;;5031975;28;20025;-81
2023/01/30 10:52:09;;;;;;;4.85;2.10;;;;;;;;;;5041805;28;20041;-82
2023/01/30 10:55:05;;;;;;;1.30;1.20;;;;;;;;;;5027794;28;20468;-82
2023/01/30 10:57:49;;;;;;;2.05;1.33;;;;;;;;;;5045540;28;20052;-81
2023/01/30 11:00:25;;;;;;;1.08;1.05;;;;;;;;;;5039204;28;20025;-80
2023/01/30 11:03:26;;;;;;;4.15;1.42;;;;;;;;;;5021660;28;20444;-82
2023/01/30 11:05:58;;;;;;;1.30;1.13;;;;;;;;;;5041740;28;20083;-82
2023/01/30 11:08:27;;;;;;;1.90;1.40;;;;;;;;;;5028675;28;20025;-83
2023/01/30 11:10:54;;;;;;;5.63;1.55;;;;;;;;;;5025907;28;20438;-80
2023/01/30 11:13:29;;;;;;;1.30;1.20;;;;;;;;;;5023821;28;20070;-80
2023/01/30 11:15:57;;;;;;;1.30;1.20;;;;;;;;;;5026686;28;20037;-81
2023/01/30 11:18:23;;;;;;;1.90;1.58;;;;;;;;;;5041352;28;20548;-81
2023/01/30 11:21:02;;;;;;;2.00;1.30;;;;;;;;;;5043092;28;20037;-79
2023/01/30 11:23:41;;;;;;;1.42;1.02;;;;;;;;;;5045053;28;20032;-82
2023/01/30 11:26:16;;;;;;;4.65;1.30;;;;;;;;;;5043186;28;20029;-81
2023/01/30 11:28:42;;;;;;;2.60;1.38;;;;;;;;;;5040594;28;20368;-83
2023/01/30 11:31:29;;;;;;;2.40;1.27;;;;;;;;;;5045044;28;20021;-82
2023/01/30 11:34:01;;;;;;;1.20;1.10;;;;;;;;;;5022291;28;20025;-80
2023/01/30 11:36:30;;;;;;;1.15;1.02;;;;;;;;;;5024568;28;20028;-83
2023/01/30 11:38:57;;;;;;;1.60;1.45;;;;;;;;;;5023430;28;20032;-81
2023/01/30 11:41:23;;;;;;;2.28;1.20;;;;;;;;;;5041038;28;20028;-83
2023/01/30 11:43:48;;;;;;;2.38;1.42;;;;;;;;;;5043253;28;20052;-82
2023/01/30 11:46:19;;;;;;;1.42;1.30;;;;;;;;;;5042765;28;20031;-82
2023/01/30 11:48:54;;;;;;;1.65;1.13;;;;;;;;;;5040571;28;20086;-82
2023/01/30 11:51:23;;;;;;;1.45;1.35;;;;;;;;;;5036690;28;20045;-81
2023/01/30 11:54:02;;;;;;;3.72;1.58;;;;;;;;;;5041275;28;20029;-81
2023/01/30 11:56:51;;;;;;;3.17;1.40;;;;;;;;;;5022469;28;20476;-79
2023/01/30 11:59:16;;;;;;;2.75;1.30;;;;;;;;;;5046046;28;20067;-79
2023/01/30 12:01:42;;;;;;;2.38;1.40;;;;;;;;;;5027190;28;20041;-82
2023/01/30 12:04:11;;;;;;;3.22;1.73;;;;;;;;;;5021820;28;20017;-84
2023/01/30 12:06:39;;;;;;;2.20;1.80;;;;;;;;;;5036046;28;20045;-82
2023/01/30 12:09:25;;;;;;;2.47;1.42;;;;;;;;;;5037573;28;20025;-81
2023/01/30 12:11:50;;;;;;;2.60;2.00;;;;;;;;;;5035535;28;20048;-86
2023/01/30 12:14:37;;;;;;;5.35;1.60;;;;;;;;;;5023123;28;20016;-85
2023/01/30 12:17:18;;;;;;;3.15;1.52;;;;;;;;;;5028260;28;20129;-82
2023/01/30 12:20:13;;;;;;;2.40;1.70;;;;;;;;;;5054902;28;20035;-82
2023/01/30 12:23:03;;;;;;;2.83;1.40;;;;;;;;;;5045107;28;20096;-82
2023/01/30 12:25:38;;;;;;;4.35;1.60;;;;;;;;;;5060197;28;20031;-83
2023/01/30 12:28:11;;;;;;;1.63;1.52;;;;;;;;;;5078310;28;20027;-83
2023/01/30 12:31:01;;;;;;;2.05;1.85;;;;;;;;;;5063601;28;20017;-79
2023/01/30 12:33:30;;;;;;;2.58;1.73;;;;;;;;;;5039558;28;20067;-82
2023/01/30 12:36:20;;;;;;;2.42;1.60;;;;;;;;;;5056705;28;20029;-82
2023/01/30 12:39:24;;;;;;;3.50;1.92;;;;;;;;;;5032651;28;20021;-82
2023/01/30 12:42:14;;;;;;;0.98;0.98;;;;;;;;;;5013064;28;20094;-82
2023/01/30 12:45:11;;;;;;;2.25;1.40;;;;;;;;;;5016963;28;20484;-86
2023/01/30 12:47:54;;;;;;;2.05;1.65;;;;;;;;;;5020953;28;20021;-81
2023/01/30 12:50:31;;;;;;;2.35;1.17;;;;;;;;;;5047320;28;20112;-83
2023/01/30 12:53:07;;;;;;;1.42;1.35;;;;;;;;;;5035198;28;20029;-83
2023/01/30 12:55:36;;;;;;;3.90;1.88;;;;;;;;;;5054197;28;20452;-82
2023/01/30 12:58:21;;;;;;;2.15;1.65;;;;;;;;;;5054203;28;20033;-83
2023/01/30 13:01:34;;;;;;;1.77;1.35;;;;;;;;;;5037080;28;20025;-81
2023/01/30 13:04:15;;;;;;;2.30;1.25;;;;;;;;;;5008142;28;20030;-82
2023/01/30 13:07:07;;;;;;;2.17;1.80;;;;;;;;;;5050906;28;20039;-83
2023/01/30 13:09:48;;;;;;;0.50;0.50;;;;;;;;;;5034013;28;20029;-83
2023/01/30 13:12:30;;;;;;;0.63;0.60;;;;;;;;;;5051468;28;20509;-83
2023/01/30 13:15:13;;;;;;;0.90;0.90;;;;;;;;;;5072564;28;20025;-84
2023/01/30 13:17:58;;;;;;;0.57;0.57;;;;;;;;;;5054669;28;20056;-83
2023/01/30 13:20:52;;;;;;;0.47;0.47;;;;;;;;;;5030967;28;20124;-85
2023/01/30 13:24:04;;;;;;;1.55;0.80;;;;;;;;;;5050161;28;20430;-86
2023/01/30 13:26:34;;;;;;;0.60;0.60;;;;;;;;;;5036102;28;20029;-85
2023/01/30 13:29:03;;;;;;;0.63;0.63;;;;;;;;;;5050238;28;20054;-84
2023/01/30 13:31:37;;;;;;;0.43;0.43;;;;;;;;;;5066080;28;20025;-83
2023/01/30 13:34:11;;;;;;;0.50;0.50;;;;;;;;;;5054143;28;20025;-84
2023/01/30 13:36:55;;;;;;;0.52;0.52;;;;;;;;;;5053759;28;20028;-85
2023/01/30 13:39:36;;;;;;;0.45;0.45;;;;;;;;;;5053205;28;20024;-83
2023/01/30 13:42:07;;;;;;;0.65;0.65;;;;;;;;;;5034672;28;20041;-85
2023/01/30 13:44:37;;;;;;;0.68;0.65;;;;;;;;;;5039519;28;20487;-83
2023/01/30 13:47:22;;;;;;;1.88;1.00;;;;;;;;;;5054595;28;20112;-84
2023/01/30 13:50:36;;;;;;;1.23;0.85;;;;;;;;;;5057610;28;20017;-83
2023/01/30 13:53:15;;;;;;;0.70;0.70;;;;;;;;;;5058271;28;20390;-83
2023/01/30 13:55:54;;;;;;;2.33;1.55;;;;;;;;;;5066798;28;20395;-82
2023/01/30 13:58:44;;;;;;;2.55;1.23;;;;;;;;;;5057529;28;20129;-82
2023/01/30 14:01:11;;;;;;;0.90;0.90;;;;;;;;;;5056177;28;20024;-83
2023/01/30 14:03:37;;;;;;;1.83;1.25;;;;;;;;;;5055035;28;20028;-83
2023/01/30 14:06:09;;;;;;;1.10;1.00;;;;;;;;;;5056248;28;20025;-83
2023/01/30 14:08:40;;;;;;;1.10;1.00;;;;;;;;;;5054428;28;20491;-83
2023/01/30 14:11:29;;;;;;;0.88;0.77;;;;;;;;;;5049987;28;20046;-84
2023/01/30 14:14:02;;;;;;;0.93;0.90;;;;;;;;;;5051205;28;20032;-83
2023/01/30 14:16:42;;;;;;;2.08;1.67;;;;;;;;;;5058580;28;20028;-83
2023/01/30 14:19:32;;;;;;;1.85;1.15;;;;;;;;;;5064971;28;20029;-84
2023/01/30 14:22:01;;;;;;;1.48;1.23;;;;;;;;;;5039785;28;20661;-84
2023/01/30 14:24:26;;;;;;;1.20;1.02;;;;;;;;;;5041695;28;20094;-82
2023/01/30 14:27:00;;;;;;;1.70;1.40;;;;;;;;;;5039492;28;20028;-82
2023/01/30 14:29:38;;;;;;;2.83;1.08;;;;;;;;;;5058075;28;20119;-83
2023/01/30 14:32:12;;;;;;;1.90;0.88;;;;;;;;;;5057273;28;20040;-83
2023/01/30 14:34:43;;;;;;;0.90;0.90;;;;;;;;;;5058362;28;20027;-83
2023/01/30 14:37:28;;;;;;;1.73;1.15;;;;;;;;;;5058767;28;20029;-84
2023/01/30 14:39:56;;;;;;;1.10;1.00;;;;;;;;;;5037908;28;20025;-84
2023/01/30 14:42:26;;;;;;;0.80;0.77;;;;;;;;;;5034956;28;20120;-82
2023/01/30 14:45:14;;;;;;;0.85;0.75;;;;;;;;;;5055396;28;20032;-82
2023/01/30 14:47:40;;;;;;;1.70;1.50;;;;;;;;;;5062659;28;20028;-82
2023/01/30 14:50:19;;;;;;;0.98;0.80;;;;;;;;;;5055807;28;20033;-81
2023/01/30 14:52:46;;;;;;;2.45;1.75;;;;;;;;;;5054739;28;20388;-82
2023/01/30 14:55:23;;;;;;;1.33;1.08;;;;;;;;;;5042198;28;20043;-82
2023/01/30 14:57:54;;;;;;;1.33;1.08;;;;;;;;;;5075234;28;20564;-82
2023/01/30 15:00:26;;;;;;;2.70;1.88;;;;;;;;;;5054005;28;20052;-82
2023/01/30 15:02:56;;;;;;;2.38;1.30;;;;;;;;;;5052872;28;20052;-81
2023/01/30 15:05:40;;;;;;;2.75;1.65;;;;;;;;;;5035132;28;20036;-82
2023/01/30 15:08:12;;;;;;;1.75;1.45;;;;;;;;;;5031419;28;20032;-81
2023/01/30 15:10:43;;;;;;;2.38;1.95;;;;;;;;;;5049850;28;20556;-85
2023/01/30 15:13:14;;;;;;;1.48;1.38;;;;;;;;;;5061524;28;20391;-86